Time;durP1;ratioP1;P1;durP2;ratioP2;P2;SDS_P1;SDS_P2;PMS_P1;PMS_P2;Temp;Humidity;BMP_temperature;BMP_pressure;BME280_temperature;BME280_humidity;BME280_pressure;Samples;Min_cycle;Max_cycle;Signal;HPM_P1;HPM_P2
2022/12/01 00:02:08;;;;;;;64.57;26.37;;;8.30;99.90;;;;;;4905634;29;20265;-76
2022/12/01 00:04:34;;;;;;;66.37;28.07;;;8.30;99.90;;;;;;4910479;29;20183;-75
2022/12/01 00:06:59;;;;;;;71.23;27.53;;;8.30;99.90;;;;;;4905358;29;20181;-74
2022/12/01 00:12:09;;;;;;;58.10;27.30;;;8.30;99.90;;;;;;4913770;29;20198;-74
2022/12/01 00:14:35;;;;;;;65.13;27.63;;;8.30;99.90;;;;;;4914837;29;20432;-74
2022/12/01 00:17:00;;;;;;;61.53;29.00;;;8.30;99.90;;;;;;4910051;29;20663;-74
2022/12/01 00:19:27;;;;;;;64.03;27.37;;;8.30;99.90;;;;;;4906517;29;20199;-75
2022/12/01 00:21:52;;;;;;;70.77;27.77;;;8.30;99.90;;;;;;4909063;29;20188;-78
2022/12/01 00:24:18;;;;;;;76.90;29.10;;;8.30;99.90;;;;;;4906519;29;20971;-76
2022/12/01 00:26:44;;;;;;;76.00;32.43;;;8.30;99.90;;;;;;4908045;29;20192;-75
2022/12/01 00:29:09;;;;;;;62.17;26.93;;;8.40;99.90;;;;;;4913139;29;20444;-74
2022/12/01 00:31:35;;;;;;;62.60;26.40;;;8.30;99.90;;;;;;4912950;29;20253;-73
2022/12/01 00:34:02;;;;;;;70.00;29.23;;;8.20;99.90;;;;;;4912839;29;20191;-74
2022/12/01 00:36:27;;;;;;;54.07;26.90;;;8.30;99.90;;;;;;4912089;29;20440;-74
2022/12/01 00:38:56;;;;;;;73.00;29.30;;;8.30;99.90;;;;;;4908161;29;20864;-76
2022/12/01 00:41:23;;;;;;;57.13;24.87;;;8.20;99.90;;;;;;4907829;29;20187;-76
2022/12/01 00:43:49;;;;;;;62.73;30.37;;;8.30;99.90;;;;;;4906182;29;20491;-76
2022/12/01 00:46:15;;;;;;;55.27;26.83;;;8.20;99.90;;;;;;4909002;29;20446;-76
2022/12/01 00:48:41;;;;;;;62.27;26.00;;;8.20;99.90;;;;;;4906211;29;20449;-76
2022/12/01 00:51:06;;;;;;;64.33;28.40;;;8.20;99.90;;;;;;4907692;29;20196;-76
2022/12/01 00:53:32;;;;;;;58.57;26.10;;;8.20;99.90;;;;;;4907915;29;20240;-76
2022/12/01 00:55:57;;;;;;;55.63;28.00;;;8.20;99.90;;;;;;4906634;29;20667;-72
2022/12/01 00:58:23;;;;;;;53.50;24.00;;;8.10;99.90;;;;;;4908738;29;20234;-72
2022/12/01 01:00:56;;;;;;;52.33;26.13;;;8.10;99.90;;;;;;4906106;29;20517;-71
2022/12/01 01:03:22;;;;;;;49.93;25.27;;;8.10;99.90;;;;;;4909898;29;20223;-72
2022/12/01 01:05:47;;;;;;;50.50;25.00;;;8.10;99.90;;;;;;4912163;29;20443;-73
2022/12/01 01:08:16;;;;;;;45.87;24.43;;;8.10;99.90;;;;;;4909653;29;20275;-73
2022/12/01 01:10:44;;;;;;;54.10;27.23;;;8.10;99.90;;;;;;4911980;29;20566;-73
2022/12/01 01:13:10;;;;;;;59.60;27.07;;;8.20;99.90;;;;;;4911077;29;20446;-74
2022/12/01 01:15:36;;;;;;;58.83;26.00;;;8.10;99.90;;;;;;4910128;29;20936;-72
2022/12/01 01:18:03;;;;;;;58.73;25.90;;;8.10;99.90;;;;;;4912769;29;20423;-73
2022/12/01 01:20:29;;;;;;;52.20;25.53;;;8.10;99.90;;;;;;4909623;29;20440;-73
2022/12/01 01:22:55;;;;;;;52.67;25.90;;;8.20;99.90;;;;;;4911534;29;20493;-73
2022/12/01 01:25:21;;;;;;;48.40;25.10;;;8.10;99.90;;;;;;4910900;29;20447;-72
2022/12/01 01:27:47;;;;;;;46.33;23.53;;;8.10;99.90;;;;;;4909969;29;20195;-72
2022/12/01 01:30:12;;;;;;;50.13;23.20;;;8.10;99.90;;;;;;4912260;29;20542;-72
2022/12/01 05:30:53;;;;;;;52.07;24.90;;;7.80;99.90;;;;;;5683466;23;20544;-70
2022/12/01 05:33:19;;;;;;;45.17;23.40;;;7.80;99.90;;;;;;4909036;29;20503;-78
2022/12/01 05:35:46;;;;;;;41.33;19.90;;;7.80;99.90;;;;;;4913280;29;20443;-72
2022/12/01 05:38:11;;;;;;;41.77;20.13;;;7.80;99.90;;;;;;4905765;29;20499;-73
2022/12/01 05:40:37;;;;;;;53.73;21.03;;;7.80;99.90;;;;;;4905651;29;20437;-80
2022/12/01 05:43:03;;;;;;;38.70;20.17;;;7.90;99.90;;;;;;4906930;29;20218;-81
2022/12/01 05:45:29;;;;;;;42.10;18.87;;;7.90;99.90;;;;;;4906612;29;20263;-75
2022/12/01 05:47:59;;;;;;;44.30;22.10;;;7.90;99.90;;;;;;4913682;29;20480;-78
2022/12/01 05:50:26;;;;;;;44.73;21.10;;;7.90;99.90;;;;;;4909301;29;20763;-76
2022/12/01 05:52:52;;;;;;;46.50;22.30;;;7.90;99.90;;;;;;4907912;29;20444;-71
2022/12/01 05:55:18;;;;;;;37.90;19.13;;;7.90;99.90;;;;;;4910815;29;20983;-71
2022/12/01 05:57:44;;;;;;;37.97;20.50;;;7.90;99.90;;;;;;4908079;29;20192;-71
2022/12/01 06:00:10;;;;;;;51.23;25.07;;;7.90;99.90;;;;;;4909769;29;20832;-70
2022/12/01 06:02:36;;;;;;;45.40;21.80;;;8.00;99.90;;;;;;4914521;29;20249;-71
2022/12/01 06:05:01;;;;;;;49.83;22.57;;;8.00;99.90;;;;;;4911428;29;20872;-72
2022/12/01 06:07:27;;;;;;;61.37;26.23;;;8.00;99.90;;;;;;4907148;29;20204;-73
2022/12/01 06:09:52;;;;;;;49.53;22.37;;;8.00;99.90;;;;;;4917243;29;20183;-72
2022/12/01 06:12:18;;;;;;;55.90;24.70;;;8.00;99.90;;;;;;4917276;29;20733;-73
2022/12/01 06:14:44;;;;;;;49.70;25.00;;;8.00;99.90;;;;;;4917304;29;20611;-73
2022/12/01 06:17:10;;;;;;;56.10;23.10;;;8.00;99.90;;;;;;4917066;29;20455;-73
2022/12/01 06:19:36;;;;;;;52.63;23.60;;;8.00;99.90;;;;;;4916585;29;20184;-73
2022/12/01 06:22:02;;;;;;;44.40;21.40;;;8.00;99.90;;;;;;4914848;29;21030;-73
2022/12/01 06:24:27;;;;;;;51.57;22.07;;;8.00;99.90;;;;;;4910623;29;20263;-73
2022/12/01 06:26:53;;;;;;;52.30;22.73;;;7.90;99.90;;;;;;4908855;29;20531;-73
2022/12/01 06:29:19;;;;;;;48.53;23.17;;;7.90;99.90;;;;;;4909835;29;20191;-73
2022/12/01 06:31:44;;;;;;;48.03;22.53;;;8.00;99.90;;;;;;4908096;29;20239;-73
2022/12/01 06:34:10;;;;;;;48.03;22.03;;;7.90;99.90;;;;;;4910773;29;20250;-73
2022/12/01 06:36:35;;;;;;;47.37;20.87;;;8.00;99.90;;;;;;4908373;29;20437;-73
2022/12/01 06:39:04;;;;;;;52.83;21.33;;;8.00;99.90;;;;;;4911698;29;20589;-73
2022/12/01 06:41:30;;;;;;;43.13;23.00;;;7.90;99.90;;;;;;4908731;29;20263;-73
2022/12/01 06:43:56;;;;;;;56.27;22.60;;;7.90;99.90;;;;;;4907962;29;20479;-73
2022/12/01 06:46:21;;;;;;;49.10;21.33;;;7.90;99.90;;;;;;4907484;29;21010;-71
2022/12/01 06:48:48;;;;;;;49.17;21.83;;;8.00;99.90;;;;;;4910540;29;20191;-72
2022/12/01 06:51:13;;;;;;;43.10;21.50;;;7.90;99.90;;;;;;4909022;29;20189;-72
2022/12/01 06:53:39;;;;;;;45.37;19.90;;;7.90;99.90;;;;;;4909191;29;20927;-72
2022/12/01 06:56:04;;;;;;;44.17;18.83;;;8.00;99.90;;;;;;4912956;29;20183;-72
2022/12/01 06:58:31;;;;;;;42.73;17.67;;;8.00;99.90;;;;;;4915256;29;20184;-72
2022/12/01 07:00:57;;;;;;;46.93;19.97;;;8.00;99.90;;;;;;4916670;29;20181;-72
2022/12/01 07:03:23;;;;;;;40.77;20.40;;;7.90;99.90;;;;;;4912167;29;20483;-75
2022/12/01 07:05:57;;;;;;;46.43;20.23;;;8.00;99.90;;;;;;4915255;29;20428;-74
2022/12/01 07:08:23;;;;;;;41.30;20.57;;;7.90;99.90;;;;;;4915929;29;20435;-75
2022/12/01 07:11:00;;;;;;;41.10;19.50;;;7.90;99.90;;;;;;4915091;29;21018;-76
2022/12/01 07:13:25;;;;;;;51.67;21.77;;;7.80;99.90;;;;;;4916556;29;20439;-79
2022/12/01 07:15:51;;;;;;;45.30;21.70;;;7.70;99.90;;;;;;4916327;29;20432;-76
2022/12/01 07:18:17;;;;;;;44.73;22.47;;;7.70;99.90;;;;;;4915813;29;20591;-78
2022/12/01 07:20:42;;;;;;;49.20;22.63;;;7.70;99.90;;;;;;4915866;29;20180;-78
2022/12/01 07:23:08;;;;;;;41.20;20.37;;;7.70;99.90;;;;;;4915726;29;20211;-78
2022/12/01 07:25:33;;;;;;;40.93;19.10;;;7.70;99.90;;;;;;4916282;29;20230;-76
2022/12/01 07:27:59;;;;;;;39.30;19.57;;;7.70;99.90;;;;;;4915695;29;20274;-81
2022/12/01 07:30:24;;;;;;;41.13;20.27;;;7.70;99.90;;;;;;4915000;29;20191;-77
2022/12/01 07:32:50;;;;;;;46.00;20.73;;;7.70;99.90;;;;;;4914934;29;20240;-77
2022/12/01 07:35:15;;;;;;;38.00;18.73;;;7.70;99.90;;;;;;4915134;29;20211;-77
2022/12/01 07:37:40;;;;;;;41.50;18.40;;;7.70;99.90;;;;;;4913948;29;20239;-76
2022/12/01 07:40:07;;;;;;;34.60;17.53;;;7.70;99.90;;;;;;4914928;29;20221;-76
2022/12/01 07:42:32;;;;;;;40.07;17.80;;;7.60;99.90;;;;;;4915340;29;20242;-77
2022/12/01 07:44:58;;;;;;;39.07;18.47;;;7.60;99.90;;;;;;4915644;29;20432;-76
2022/12/01 07:47:23;;;;;;;42.23;19.33;;;7.60;99.90;;;;;;4914935;29;20179;-76
2022/12/01 07:49:49;;;;;;;45.03;20.37;;;7.60;99.90;;;;;;4912728;29;20188;-81
2022/12/01 07:52:14;;;;;;;38.50;20.67;;;7.70;99.90;;;;;;4914913;29;20190;-78
2022/12/01 07:54:40;;;;;;;40.27;19.20;;;7.70;99.90;;;;;;4914520;29;20183;-77
2022/12/01 07:57:05;;;;;;;37.83;19.30;;;7.70;99.90;;;;;;4915374;29;20209;-77
2022/12/01 07:59:31;;;;;;;33.67;18.33;;;7.80;99.90;;;;;;4915594;29;20651;-76
2022/12/01 08:01:56;;;;;;;34.93;18.40;;;7.80;99.90;;;;;;4915441;29;20179;-77
2022/12/01 08:04:22;;;;;;;35.57;18.53;;;7.80;99.90;;;;;;4914729;29;20212;-74
2022/12/01 08:06:47;;;;;;;28.20;16.90;;;7.80;99.90;;;;;;4913536;29;20595;-75
2022/12/01 08:09:13;;;;;;;36.43;16.40;;;7.80;99.90;;;;;;4914638;29;20335;-74
2022/12/01 08:11:38;;;;;;;46.13;19.83;;;7.80;99.90;;;;;;4914346;29;20176;-75
2022/12/01 08:14:04;;;;;;;39.60;17.57;;;7.80;99.90;;;;;;4912008;29;20346;-73
2022/12/01 08:16:30;;;;;;;41.17;18.67;;;7.80;99.90;;;;;;4912650;29;20186;-76
2022/12/01 08:18:55;;;;;;;39.70;17.63;;;7.90;99.90;;;;;;4912548;29;20200;-79
2022/12/01 08:21:22;;;;;;;39.93;19.00;;;7.90;99.90;;;;;;4914979;29;20795;-76
2022/12/01 08:23:52;;;;;;;43.10;21.70;;;7.90;99.90;;;;;;4914305;29;20219;-76
2022/12/01 08:26:19;;;;;;;48.33;23.87;;;7.90;99.90;;;;;;4913427;29;20443;-75
2022/12/01 08:28:45;;;;;;;42.47;21.70;;;7.90;99.90;;;;;;4914403;29;20444;-75
2022/12/01 08:31:14;;;;;;;46.20;22.50;;;7.90;99.90;;;;;;4911386;29;20471;-75
2022/12/01 08:33:40;;;;;;;47.57;22.50;;;7.90;99.90;;;;;;4905521;29;20432;-74
2022/12/01 08:36:06;;;;;;;43.83;19.10;;;7.90;99.90;;;;;;4907207;29;20522;-75
2022/12/01 08:38:32;;;;;;;39.40;18.80;;;7.90;99.90;;;;;;4906564;29;20212;-75
2022/12/01 08:41:03;;;;;;;40.83;18.90;;;7.90;99.90;;;;;;4905466;29;20532;-75
2022/12/01 08:43:29;;;;;;;41.23;20.90;;;7.90;99.90;;;;;;4904717;29;20205;-75
2022/12/01 08:45:59;;;;;;;34.47;17.33;;;7.90;99.90;;;;;;4906905;29;20519;-75
2022/12/01 08:48:28;;;;;;;36.77;17.80;;;7.80;99.90;;;;;;4906258;29;20529;-75
2022/12/01 08:51:04;;;;;;;34.70;18.07;;;7.80;99.90;;;;;;4904527;29;20441;-73
2022/12/01 08:53:31;;;;;;;31.90;17.30;;;7.80;99.90;;;;;;4906666;29;20526;-73
2022/12/01 08:56:06;;;;;;;37.53;15.97;;;7.80;99.90;;;;;;4908597;29;20440;-73
2022/12/01 08:58:31;;;;;;;40.13;18.77;;;7.90;99.90;;;;;;4906026;29;20440;-73
2022/12/01 09:01:08;;;;;;;39.00;18.77;;;7.80;99.90;;;;;;4907508;29;20443;-73
2022/12/01 09:03:35;;;;;;;25.37;15.00;;;7.90;99.90;;;;;;4908653;29;20243;-73
2022/12/01 09:06:05;;;;;;;29.20;16.47;;;7.90;99.90;;;;;;4906238;29;20452;-73
2022/12/01 09:08:31;;;;;;;33.03;16.80;;;7.90;99.90;;;;;;4906892;29;20451;-73
2022/12/01 09:10:57;;;;;;;26.50;15.30;;;7.90;99.90;;;;;;4908133;29;20435;-73
2022/12/01 09:13:23;;;;;;;28.47;15.70;;;7.90;99.90;;;;;;4905613;29;20449;-73
2022/12/01 09:16:04;;;;;;;29.37;14.60;;;7.90;99.90;;;;;;4908484;29;20519;-73
2022/12/01 09:18:30;;;;;;;20.10;13.40;;;8.00;99.90;;;;;;4908533;29;20439;-73
2022/12/01 09:20:55;;;;;;;32.90;17.80;;;8.00;99.90;;;;;;4904966;29;20836;-73
2022/12/01 09:23:22;;;;;;;30.93;16.60;;;8.00;99.90;;;;;;4907512;29;20493;-73
2022/12/01 09:25:48;;;;;;;28.13;15.43;;;8.00;99.90;;;;;;4911104;29;20196;-73
2022/12/01 09:28:14;;;;;;;32.17;17.87;;;8.00;99.90;;;;;;4911524;29;20428;-73
2022/12/01 09:30:40;;;;;;;37.00;18.73;;;8.10;99.90;;;;;;4909228;29;20495;-73
2022/12/01 09:33:06;;;;;;;32.37;18.93;;;8.10;99.90;;;;;;4912336;29;20187;-73
2022/12/01 09:35:31;;;;;;;33.30;19.17;;;8.10;99.90;;;;;;4909748;29;20495;-77
2022/12/01 09:37:58;;;;;;;41.57;21.00;;;8.10;99.90;;;;;;4910874;29;20195;-78
2022/12/01 09:40:33;;;;;;;37.73;20.80;;;8.10;99.90;;;;;;4907414;29;20193;-77
2022/12/01 09:43:02;;;;;;;44.30;23.03;;;8.00;99.90;;;;;;4909423;29;20528;-77
2022/12/01 09:45:31;;;;;;;38.87;20.47;;;8.00;99.90;;;;;;4908369;29;20437;-78
2022/12/01 09:47:59;;;;;;;36.90;22.03;;;8.00;99.90;;;;;;4909717;29;20534;-78
2022/12/01 09:50:28;;;;;;;49.47;25.00;;;8.10;99.90;;;;;;4911917;29;20431;-76
2022/12/01 09:53:01;;;;;;;44.90;23.50;;;8.00;99.90;;;;;;4908503;29;20579;-70
2022/12/01 09:55:29;;;;;;;47.10;24.00;;;8.00;99.90;;;;;;4910489;29;20839;-70
2022/12/01 09:57:57;;;;;;;45.60;24.87;;;8.00;99.90;;;;;;4908636;29;20459;-70
2022/12/01 10:00:31;;;;;;;44.13;23.33;;;8.00;99.90;;;;;;4916709;29;20840;-71
2022/12/01 10:03:15;;;;;;;53.47;27.57;;;8.00;99.90;;;;;;4911005;29;20470;-71
2022/12/01 10:05:41;;;;;;;51.83;27.50;;;8.00;99.90;;;;;;4910901;29;20772;-72
2022/12/01 10:08:12;;;;;;;56.60;28.20;;;8.00;99.90;;;;;;4908729;29;20444;-71
2022/12/01 10:10:47;;;;;;;58.33;29.33;;;8.00;99.90;;;;;;4908766;29;20188;-71
2022/12/01 10:13:24;;;;;;;53.60;29.27;;;8.00;99.90;;;;;;4911748;29;20430;-71
2022/12/01 10:15:52;;;;;;;59.10;30.47;;;8.00;99.90;;;;;;4908815;29;20835;-71
2022/12/01 10:18:18;;;;;;;55.37;28.20;;;8.00;99.90;;;;;;4909360;29;20460;-71
2022/12/01 10:20:52;;;;;;;59.87;30.33;;;8.10;99.90;;;;;;4910911;29;20531;-74
2022/12/01 10:23:39;;;;;;;67.80;32.23;;;8.00;99.90;;;;;;4908892;29;20580;-72
2022/12/01 10:26:12;;;;;;;64.63;33.40;;;8.10;99.90;;;;;;4908211;29;20500;-72
2022/12/01 10:28:57;;;;;;;62.73;31.80;;;8.10;99.90;;;;;;4908609;29;20481;-72
2022/12/01 10:31:34;;;;;;;64.93;34.13;;;8.10;99.90;;;;;;4910106;29;20479;-73
2022/12/01 10:34:09;;;;;;;61.23;33.07;;;8.00;99.90;;;;;;4914477;29;20808;-73
2022/12/01 10:36:35;;;;;;;71.83;37.10;;;8.10;99.90;;;;;;4915152;29;20526;-72
2022/12/01 10:39:03;;;;;;;73.10;34.83;;;8.20;99.90;;;;;;4910850;29;20567;-76
2022/12/01 10:41:32;;;;;;;66.10;34.80;;;8.20;99.90;;;;;;4906887;29;20191;-78
2022/12/01 10:43:59;;;;;;;81.70;34.33;;;8.20;99.90;;;;;;4908961;29;20483;-77
2022/12/01 10:46:28;;;;;;;68.17;34.43;;;8.20;99.90;;;;;;4908897;29;20454;-76
2022/12/01 10:48:56;;;;;;;71.60;36.97;;;8.30;99.90;;;;;;4906980;29;20433;-72
2022/12/01 10:51:23;;;;;;;63.20;33.47;;;8.30;99.90;;;;;;4907031;29;20469;-73
2022/12/01 10:53:56;;;;;;;59.40;31.17;;;8.30;99.90;;;;;;4908661;29;20451;-74
2022/12/01 10:56:21;;;;;;;71.87;34.83;;;8.30;99.90;;;;;;4909737;29;20442;-73
2022/12/01 10:59:01;;;;;;;65.57;33.43;;;8.40;99.90;;;;;;4909762;29;20448;-74
2022/12/01 11:01:30;;;;;;;67.70;33.70;;;8.40;99.90;;;;;;4916829;29;20231;-75
2022/12/01 11:04:01;;;;;;;69.60;36.17;;;8.40;99.90;;;;;;4916299;29;20482;-74
2022/12/01 11:06:29;;;;;;;65.37;32.70;;;8.40;99.90;;;;;;4912272;29;20756;-74
2022/12/01 11:09:06;;;;;;;61.90;32.27;;;8.40;99.90;;;;;;4915935;29;20535;-75
2022/12/01 11:11:35;;;;;;;62.73;33.87;;;8.40;99.90;;;;;;4912861;29;20440;-74
2022/12/01 11:14:23;;;;;;;70.13;34.77;;;8.40;99.90;;;;;;4914369;29;20440;-75
2022/12/01 11:16:52;;;;;;;62.20;35.90;;;8.40;99.90;;;;;;4915660;29;20440;-75
2022/12/01 11:19:31;;;;;;;66.37;31.77;;;8.40;99.90;;;;;;4915211;29;20499;-75
2022/12/01 11:22:23;;;;;;;70.90;37.17;;;8.40;99.90;;;;;;4915412;29;20447;-75
2022/12/01 11:24:52;;;;;;;60.53;34.30;;;8.40;99.90;;;;;;4906496;29;20463;-75
2022/12/01 11:27:21;;;;;;;68.53;34.63;;;8.40;99.90;;;;;;4909343;29;20442;-75
2022/12/01 11:29:49;;;;;;;81.53;35.73;;;8.40;99.90;;;;;;4905725;29;20806;-75
2022/12/01 11:32:31;;;;;;;65.77;35.47;;;8.50;99.90;;;;;;4907466;29;20528;-74
2022/12/01 11:35:03;;;;;;;63.70;35.00;;;8.50;99.90;;;;;;4906747;29;20432;-74
2022/12/01 11:37:38;;;;;;;61.50;33.97;;;8.50;99.90;;;;;;4912957;29;20485;-74
2022/12/01 11:40:08;;;;;;;61.63;34.40;;;8.50;99.90;;;;;;4906278;29;20539;-75
2022/12/01 11:42:35;;;;;;;68.63;34.03;;;8.50;99.90;;;;;;4906080;29;20514;-74
2022/12/01 11:45:19;;;;;;;66.90;38.10;;;8.50;99.90;;;;;;4908345;29;20538;-75
2022/12/01 11:48:06;;;;;;;60.03;32.83;;;8.50;99.90;;;;;;4907555;29;20971;-74
2022/12/01 11:50:35;;;;;;;70.27;33.97;;;8.50;99.90;;;;;;4907418;29;20440;-74
2022/12/01 11:53:01;;;;;;;60.57;34.53;;;8.50;99.90;;;;;;4905958;29;20503;-74
2022/12/01 11:55:29;;;;;;;67.47;34.80;;;8.50;99.90;;;;;;4909324;29;20465;-79
2022/12/01 11:58:00;;;;;;;67.40;35.43;;;8.50;99.90;;;;;;4911811;29;20515;-78
2022/12/01 12:00:29;;;;;;;67.40;32.60;;;8.50;99.90;;;;;;4911832;29;20951;-77
2022/12/01 12:03:00;;;;;;;61.53;31.97;;;8.50;99.90;;;;;;4914874;29;20479;-78
2022/12/01 12:05:36;;;;;;;62.20;32.40;;;8.50;99.90;;;;;;4912672;29;20440;-82
2022/12/01 12:08:35;;;;;;;54.63;31.17;;;8.50;99.90;;;;;;4913517;29;20431;-80
2022/12/01 12:11:16;;;;;;;66.37;36.07;;;8.60;99.90;;;;;;4911691;29;20460;-78
2022/12/01 12:13:56;;;;;;;70.20;34.60;;;8.60;99.90;;;;;;4913379;29;20436;-76
2022/12/01 12:16:42;;;;;;;66.83;34.40;;;8.60;99.90;;;;;;4927001;29;20970;-77
2022/12/01 12:19:42;;;;;;;62.33;32.40;;;8.60;99.90;;;;;;4912145;29;20778;-78
2022/12/01 12:22:52;;;;;;;65.27;35.67;;;8.60;99.90;;;;;;4878798;29;20449;-78
2022/12/01 12:25:31;;;;;;;76.57;36.90;;;8.60;99.90;;;;;;4905669;29;21084;-78
2022/12/01 12:28:25;;;;;;;72.90;36.23;;;8.60;99.90;;;;;;4912237;29;21010;-74
2022/12/01 12:31:12;;;;;;;69.47;36.50;;;8.60;99.90;;;;;;4912732;29;20482;-76
2022/12/01 12:34:12;;;;;;;81.20;39.80;;;8.50;99.90;;;;;;4913149;29;20488;-78
2022/12/01 12:36:42;;;;;;;68.17;37.27;;;8.60;99.90;;;;;;4903062;29;20490;-81
2022/12/01 12:39:27;;;;;;;68.10;37.93;;;8.60;99.90;;;;;;4912880;29;20436;-77
2022/12/01 12:41:56;;;;;;;67.20;33.77;;;8.60;99.90;;;;;;4912072;29;20455;-78
2022/12/01 12:44:50;;;;;;;63.23;35.67;;;8.60;99.90;;;;;;4913081;29;20481;-81
2022/12/01 12:47:24;;;;;;;69.33;37.03;;;8.60;99.90;;;;;;4912749;29;20436;-74
2022/12/01 12:50:10;;;;;;;64.50;36.00;;;8.60;99.90;;;;;;4910208;29;20423;-75
2022/12/01 12:52:40;;;;;;;68.53;35.57;;;8.60;99.90;;;;;;4913933;29;20451;-78
2022/12/01 12:55:44;;;;;;;65.67;35.17;;;8.50;99.90;;;;;;4912527;29;20463;-76
2022/12/01 12:58:24;;;;;;;65.47;35.20;;;8.40;99.90;;;;;;4894186;29;20520;-73
2022/12/01 13:00:56;;;;;;;61.90;34.30;;;8.50;99.90;;;;;;4912802;29;20442;-76
2022/12/01 13:03:46;;;;;;;73.83;35.40;;;8.50;99.90;;;;;;4913832;29;20482;-75
2022/12/01 13:06:21;;;;;;;70.47;35.40;;;8.50;99.90;;;;;;4912849;29;20913;-73
2022/12/01 13:09:00;;;;;;;71.97;36.10;;;8.50;99.90;;;;;;4910017;29;20424;-72
2022/12/01 13:11:35;;;;;;;64.95;39.60;;;8.50;99.90;;;;;;4904159;29;20441;-72
2022/12/01 13:14:22;;;;;;;64.00;36.73;;;8.60;99.90;;;;;;4907069;29;20180;-71
2022/12/01 13:16:50;;;;;;;46.80;28.67;;;8.70;99.90;;;;;;4907089;29;20451;-72
2022/12/01 13:19:32;;;;;;;63.00;33.47;;;8.80;99.90;;;;;;4904567;29;20473;-71
2022/12/01 13:21:59;;;;;;;55.40;30.53;;;8.80;99.90;;;;;;4908316;29;20515;-72
2022/12/01 13:24:28;;;;;;;63.60;32.63;;;8.80;99.90;;;;;;4904507;29;20567;-72
2022/12/01 13:27:06;;;;;;;60.83;29.37;;;8.90;99.90;;;;;;4906838;29;20441;-72
2022/12/01 13:29:35;;;;;;;67.13;33.77;;;8.90;99.90;;;;;;4907435;29;20531;-71
2022/12/01 13:32:01;;;;;;;61.00;33.30;;;8.90;99.90;;;;;;4906870;29;20480;-73
2022/12/01 13:34:40;;;;;;;64.70;33.43;;;8.90;99.90;;;;;;4905699;29;20500;-73
